Decoded Metar for GMFF (FEZ in MOROCCO) (IATA:FEZ) | Meteo·Mobile Aviation Weather
aviador You're here:

GMFF Decoded Metar

FEZ in MOROCCO
Report Time2019-03-20 00:30:00
UTC Time2019-03-20 00:56:56
Flight Rules vfr VFR
Wind060° at 09 kt
W.Decomp.*RWY 09: 7.9 kt HW 4.4 kt LCW
W.Rank060° ranks 6
Current wind is above 060° avg. (7.7)
Visibility9999 m
Phenomena:N/A
Clouds:N/A
Expected CloudBase > 1,600 ft AGL from Temp-Dew spread
CeilingNone
Temp11°C (ISA -0)
Dew Point07°C (77% RH)
AAT7.1°C
QNH1020 hPa
Density Alt1,778 ft
Elevation1,900 ft
Report Wrong Elevation
Raw Report
GMFF 200030Z 06009KT CAVOK 11/07 Q1020 NOSIG=

Extra information for GMFF:More info

Metar Taf Metar & Taf Last 4 Metars F.Rules Stats Wind Profile Meteogram Temp Stats Airport Information Weather charts Add Link Nearby VenuesMetar ALERT Operation Metar Decoded Social comments